sensor_id;sensor_type;location;lat;lon;timestamp;pressure;altitude;pressure_sealevel;temperature;humidity
61537;BME280;48695;53.480;-6.300;2024-01-10T00:01:11;102966.59;;;5.78;66.56
61537;BME280;48695;53.480;-6.300;2024-01-10T00:03:37;102966.59;;;5.78;66.63
61537;BME280;48695;53.480;-6.300;2024-01-10T00:06:02;102962.19;;;5.77;66.75
61537;BME280;48695;53.480;-6.300;2024-01-10T00:08:27;102957.84;;;5.76;66.53
61537;BME280;48695;53.480;-6.300;2024-01-10T00:10:53;102952.69;;;5.76;66.46
61537;BME280;48695;53.480;-6.300;2024-01-10T00:13:19;102956.09;;;5.75;66.68
61537;BME280;48695;53.480;-6.300;2024-01-10T00:15:45;102951.78;;;5.76;66.65
61537;BME280;48695;53.480;-6.300;2024-01-10T00:18:10;102950.00;;;5.73;66.40
61537;BME280;48695;53.480;-6.300;2024-01-10T00:20:35;102949.03;;;5.71;66.44
61537;BME280;48695;53.480;-6.300;2024-01-10T00:23:00;102947.28;;;5.70;66.45
61537;BME280;48695;53.480;-6.300;2024-01-10T00:25:26;102945.53;;;5.69;66.33
61537;BME280;48695;53.480;-6.300;2024-01-10T00:27:51;102940.34;;;5.69;66.72
61537;BME280;48695;53.480;-6.300;2024-01-10T00:30:16;102942.94;;;5.69;66.36
61537;BME280;48695;53.480;-6.300;2024-01-10T00:32:42;102942.94;;;5.69;66.66
61537;BME280;48695;53.480;-6.300;2024-01-10T00:35:07;102938.69;;;5.71;66.43
61537;BME280;48695;53.480;-6.300;2024-01-10T00:37:32;102936.09;;;5.71;66.71
61537;BME280;48695;53.480;-6.300;2024-01-10T00:39:57;102931.84;;;5.73;66.58
61537;BME280;48695;53.480;-6.300;2024-01-10T00:42:23;102937.91;;;5.73;66.20
61537;BME280;48695;53.480;-6.300;2024-01-10T00:44:48;102925.00;;;5.75;66.49
61537;BME280;48695;53.480;-6.300;2024-01-10T00:47:13;102926.75;;;5.76;66.61
61537;BME280;48695;53.480;-6.300;2024-01-10T00:49:39;102930.28;;;5.78;66.29
61537;BME280;48695;53.480;-6.300;2024-01-10T00:52:04;102930.28;;;5.78;66.79
61537;BME280;48695;53.480;-6.300;2024-01-10T00:54:29;102920.84;;;5.80;67.00
61537;BME280;48695;53.480;-6.300;2024-01-10T00:56:55;102925.19;;;5.81;66.67
61537;BME280;48695;53.480;-6.300;2024-01-10T00:59:20;102916.56;;;5.82;66.49
61537;BME280;48695;53.480;-6.300;2024-01-10T01:01:45;102921.75;;;5.82;66.50
61537;BME280;48695;53.480;-6.300;2024-01-10T01:04:10;102913.19;;;5.83;66.43
61537;BME280;48695;53.480;-6.300;2024-01-10T01:06:36;102906.00;;;5.76;66.34
61537;BME280;48695;53.480;-6.300;2024-01-10T01:09:01;102907.03;;;5.81;66.52
61537;BME280;48695;53.480;-6.300;2024-01-10T01:11:27;102908.75;;;5.81;66.30
61537;BME280;48695;53.480;-6.300;2024-01-10T01:13:52;102895.75;;;5.79;66.86
61537;BME280;48695;53.480;-6.300;2024-01-10T01:16:17;102900.06;;;5.79;66.47
61537;BME280;48695;53.480;-6.300;2024-01-10T01:18:43;102915.63;;;5.79;66.72
61537;BME280;48695;53.480;-6.300;2024-01-10T01:21:10;102914.72;;;5.78;66.50
61537;BME280;48695;53.480;-6.300;2024-01-10T01:23:35;102919.91;;;5.78;66.45
61537;BME280;48695;53.480;-6.300;2024-01-10T01:26:00;102917.31;;;5.78;66.54
61537;BME280;48695;53.480;-6.300;2024-01-10T01:28:26;102905.69;;;5.67;66.43
61537;BME280;48695;53.480;-6.300;2024-01-10T01:30:51;102922.50;;;5.78;66.80
61537;BME280;48695;53.480;-6.300;2024-01-10T01:33:16;102919.91;;;5.78;66.64
61537;BME280;48695;53.480;-6.300;2024-01-10T01:35:42;102920.72;;;5.77;66.71
61537;BME280;48695;53.480;-6.300;2024-01-10T01:38:07;102925.09;;;5.78;66.92
61537;BME280;48695;53.480;-6.300;2024-01-10T01:40:32;102924.28;;;5.79;66.71
61537;BME280;48695;53.480;-6.300;2024-01-10T01:42:58;102925.09;;;5.78;66.77
61537;BME280;48695;53.480;-6.300;2024-01-10T01:45:23;102931.16;;;5.79;66.64
61537;BME280;48695;53.480;-6.300;2024-01-10T01:47:49;102933.81;;;5.80;66.82
61537;BME280;48695;53.480;-6.300;2024-01-10T01:50:14;102936.41;;;5.80;66.57
61537;BME280;48695;53.480;-6.300;2024-01-10T01:52:40;102938.16;;;5.81;66.68
61537;BME280;48695;53.480;-6.300;2024-01-10T01:55:05;102932.13;;;5.82;66.85
61537;BME280;48695;53.480;-6.300;2024-01-10T01:57:32;102939.09;;;5.83;66.90
61537;BME280;48695;53.480;-6.300;2024-01-10T01:59:57;102936.53;;;5.85;66.91
61537;BME280;48695;53.480;-6.300;2024-01-10T02:02:23;102934.00;;;5.86;66.78
61537;BME280;48695;53.480;-6.300;2024-01-10T02:04:49;102921.06;;;5.88;66.88
61537;BME280;48695;53.480;-6.300;2024-01-10T02:07:14;102932.47;;;5.91;66.93
61537;BME280;48695;53.480;-6.300;2024-01-10T02:09:39;102935.09;;;5.93;66.99
61537;BME280;48695;53.480;-6.300;2024-01-10T02:12:05;102930.81;;;5.93;66.99
61537;BME280;48695;53.480;-6.300;2024-01-10T02:14:30;102920.44;;;5.93;66.64
61537;BME280;48695;53.480;-6.300;2024-01-10T02:16:56;102913.59;;;5.95;66.97
61537;BME280;48695;53.480;-6.300;2024-01-10T02:19:22;102918.88;;;5.98;67.03
61537;BME280;48695;53.480;-6.300;2024-01-10T02:21:47;102924.88;;;5.97;66.72
61537;BME280;48695;53.480;-6.300;2024-01-10T02:24:12;102918.03;;;6.00;66.70
61537;BME280;48695;53.480;-6.300;2024-01-10T02:26:38;102919.78;;;6.01;66.67
61537;BME280;48695;53.480;-6.300;2024-01-10T02:29:04;102919.78;;;6.01;67.05
61537;BME280;48695;53.480;-6.300;2024-01-10T02:31:29;102915.50;;;6.01;66.85
61537;BME280;48695;53.480;-6.300;2024-01-10T02:33:54;102911.19;;;6.02;66.70
61537;BME280;48695;53.480;-6.300;2024-01-10T02:36:19;102908.59;;;6.02;66.70
61537;BME280;48695;53.480;-6.300;2024-01-10T02:38:45;102903.41;;;6.02;66.83
61537;BME280;48695;53.480;-6.300;2024-01-10T02:41:10;102916.38;;;6.02;66.66
61537;BME280;48695;53.480;-6.300;2024-01-10T02:43:35;102917.25;;;6.02;66.89
61537;BME280;48695;53.480;-6.300;2024-01-10T02:46:00;102912.91;;;6.01;66.94
61537;BME280;48695;53.480;-6.300;2024-01-10T02:48:26;102916.31;;;6.00;66.77
61537;BME280;48695;53.480;-6.300;2024-01-10T02:50:51;102920.63;;;6.00;66.97
61537;BME280;48695;53.480;-6.300;2024-01-10T02:53:16;102917.16;;;5.99;66.81
61537;BME280;48695;53.480;-6.300;2024-01-10T02:55:42;102922.28;;;5.97;66.75
61537;BME280;48695;53.480;-6.300;2024-01-10T02:58:08;102913.63;;;5.97;66.72
61537;BME280;48695;53.480;-6.300;2024-01-10T03:00:33;102917.00;;;5.94;66.94
61537;BME280;48695;53.480;-6.300;2024-01-10T03:02:58;102918.78;;;5.95;66.57
61537;BME280;48695;53.480;-6.300;2024-01-10T03:05:24;102915.25;;;5.93;66.70
61537;BME280;48695;53.480;-6.300;2024-01-10T03:07:49;102916.13;;;5.94;67.08
61537;BME280;48695;53.480;-6.300;2024-01-10T03:10:14;102929.03;;;5.92;66.73
61537;BME280;48695;53.480;-6.300;2024-01-10T03:12:39;102913.47;;;5.92;66.59
61537;BME280;48695;53.480;-6.300;2024-01-10T03:15:06;102929.88;;;5.91;66.82
61537;BME280;48695;53.480;-6.300;2024-01-10T03:17:31;102929.88;;;5.91;66.62
61537;BME280;48695;53.480;-6.300;2024-01-10T03:19:59;102926.38;;;5.91;66.55
61537;BME280;48695;53.480;-6.300;2024-01-10T03:22:24;102934.22;;;5.92;66.76
61537;BME280;48695;53.480;-6.300;2024-01-10T03:24:49;102927.28;;;5.91;67.04
61537;BME280;48695;53.480;-6.300;2024-01-10T03:27:14;102929.03;;;5.92;66.79
61537;BME280;48695;53.480;-6.300;2024-01-10T03:29:40;102918.66;;;5.92;66.94
61537;BME280;48695;53.480;-6.300;2024-01-10T03:32:05;102922.19;;;5.94;66.83
61537;BME280;48695;53.480;-6.300;2024-01-10T03:34:31;102920.44;;;5.93;66.89
61537;BME280;48695;53.480;-6.300;2024-01-10T03:36:56;102932.56;;;5.94;67.21
61537;BME280;48695;53.480;-6.300;2024-01-10T03:39:22;102927.38;;;5.94;67.21
61537;BME280;48695;53.480;-6.300;2024-01-10T03:41:47;102917.91;;;5.95;67.06
61537;BME280;48695;53.480;-6.300;2024-01-10T03:44:13;102923.06;;;5.95;66.86
61537;BME280;48695;53.480;-6.300;2024-01-10T03:46:38;102925.72;;;5.96;67.11
61537;BME280;48695;53.480;-6.300;2024-01-10T03:49:03;102922.28;;;5.97;66.82
61537;BME280;48695;53.480;-6.300;2024-01-10T03:51:29;102920.63;;;6.00;66.94
61537;BME280;48695;53.480;-6.300;2024-01-10T03:53:54;102922.38;;;6.01;67.36
61537;BME280;48695;53.480;-6.300;2024-01-10T03:56:20;102919.84;;;6.02;66.97
61537;BME280;48695;53.480;-6.300;2024-01-10T03:58:45;102920.81;;;6.06;67.26
61537;BME280;48695;53.480;-6.300;2024-01-10T04:01:13;102923.44;;;6.07;67.36
61537;BME280;48695;53.480;-6.300;2024-01-10T04:03:38;102920.94;;;6.09;67.19
61537;BME280;48695;53.480;-6.300;2024-01-10T04:06:07;102922.69;;;6.10;67.18
61537;BME280;48695;53.480;-6.300;2024-01-10T04:08:32;102925.34;;;6.13;67.25
61537;BME280;48695;53.480;-6.300;2024-01-10T04:10:58;102919.38;;;6.14;67.19
61537;BME280;48695;53.480;-6.300;2024-01-10T04:13:23;102915.94;;;6.15;67.48
61537;BME280;48695;53.480;-6.300;2024-01-10T04:15:48;102918.56;;;6.16;67.01
61537;BME280;48695;53.480;-6.300;2024-01-10T04:18:14;102919.50;;;6.18;67.16
61537;BME280;48695;53.480;-6.300;2024-01-10T04:20:39;102916.94;;;6.20;67.02
61537;BME280;48695;53.480;-6.300;2024-01-10T04:23:04;102914.41;;;6.21;67.18
61537;BME280;48695;53.480;-6.300;2024-01-10T04:25:30;102912.75;;;6.23;67.33
61537;BME280;48695;53.480;-6.300;2024-01-10T04:27:55;102904.13;;;6.24;67.14
61537;BME280;48695;53.480;-6.300;2024-01-10T04:30:22;102907.59;;;6.25;67.47
61537;BME280;48695;53.480;-6.300;2024-01-10T04:32:47;102904.16;;;6.26;67.20
61537;BME280;48695;53.480;-6.300;2024-01-10T04:35:12;102900.69;;;6.26;67.08
61537;BME280;48695;53.480;-6.300;2024-01-10T04:37:37;102904.16;;;6.26;66.98
61537;BME280;48695;53.480;-6.300;2024-01-10T04:40:03;102905.91;;;6.27;67.00
61537;BME280;48695;53.480;-6.300;2024-01-10T04:42:29;102911.09;;;6.27;66.96
61537;BME280;48695;53.480;-6.300;2024-01-10T04:44:55;102916.28;;;6.27;66.88
61537;BME280;48695;53.480;-6.300;2024-01-10T04:47:20;102914.66;;;6.29;67.33
61537;BME280;48695;53.480;-6.300;2024-01-10T04:49:45;102917.25;;;6.29;67.15
61537;BME280;48695;53.480;-6.300;2024-01-10T04:52:10;102918.16;;;6.31;67.19
61537;BME280;48695;53.480;-6.300;2024-01-10T04:54:36;102912.97;;;6.31;67.31
61537;BME280;48695;53.480;-6.300;2024-01-10T04:57:01;102915.59;;;6.33;67.62
61537;BME280;48695;53.480;-6.300;2024-01-10T04:59:26;102911.28;;;6.33;67.53
61537;BME280;48695;53.480;-6.300;2024-01-10T05:01:51;102908.75;;;6.35;67.37
61537;BME280;48695;53.480;-6.300;2024-01-10T05:04:17;102914.81;;;6.35;67.36
61537;BME280;48695;53.480;-6.300;2024-01-10T05:06:42;102913.13;;;6.37;67.57
61537;BME280;48695;53.480;-6.300;2024-01-10T05:09:07;102914.91;;;6.38;67.07
61537;BME280;48695;53.480;-6.300;2024-01-10T05:11:34;102914.91;;;6.38;67.26
61537;BME280;48695;53.480;-6.300;2024-01-10T05:14:01;102906.31;;;6.39;67.29
61537;BME280;48695;53.480;-6.300;2024-01-10T05:16:26;102899.44;;;6.41;67.37
61537;BME280;48695;53.480;-6.300;2024-01-10T05:18:51;102894.25;;;6.41;67.16
61537;BME280;48695;53.480;-6.300;2024-01-10T05:21:16;102899.44;;;6.41;67.04
61537;BME280;48695;53.480;-6.300;2024-01-10T05:23:42;102902.94;;;6.43;67.35
61537;BME280;48695;53.480;-6.300;2024-01-10T05:26:07;102895.16;;;6.43;67.05
61537;BME280;48695;53.480;-6.300;2024-01-10T05:28:33;102895.22;;;6.45;67.15
61537;BME280;48695;53.480;-6.300;2024-01-10T05:30:58;102894.34;;;6.44;67.24
61537;BME280;48695;53.480;-6.300;2024-01-10T05:33:23;102899.53;;;6.44;66.96
61537;BME280;48695;53.480;-6.300;2024-01-10T05:35:48;102906.44;;;6.44;66.94
61537;BME280;48695;53.480;-6.300;2024-01-10T05:38:14;102901.19;;;6.42;67.33
61537;BME280;48695;53.480;-6.300;2024-01-10T05:40:39;102901.19;;;6.42;67.17
61537;BME280;48695;53.480;-6.300;2024-01-10T05:43:05;102898.56;;;6.41;67.22
61537;BME280;48695;53.480;-6.300;2024-01-10T05:45:32;102896.78;;;6.40;67.08
61537;BME280;48695;53.480;-6.300;2024-01-10T05:47:57;102895.91;;;6.39;67.01
61537;BME280;48695;53.480;-6.300;2024-01-10T05:50:23;102888.94;;;6.38;66.87
61537;BME280;48695;53.480;-6.300;2024-01-10T05:52:48;102894.13;;;6.38;66.96
61537;BME280;48695;53.480;-6.300;2024-01-10T05:55:13;102892.38;;;6.37;67.17
61537;BME280;48695;53.480;-6.300;2024-01-10T05:57:39;102890.63;;;6.36;66.96
61537;BME280;48695;53.480;-6.300;2024-01-10T06:00:05;102880.09;;;6.32;66.91
61537;BME280;48695;53.480;-6.300;2024-01-10T06:02:38;102894.97;;;6.37;67.14
61537;BME280;48695;53.480;-6.300;2024-01-10T06:05:07;102889.78;;;6.37;67.03
61537;BME280;48695;53.480;-6.300;2024-01-10T06:07:32;102883.75;;;6.38;67.26
61537;BME280;48695;53.480;-6.300;2024-01-10T06:09:57;102883.75;;;6.38;67.33
61537;BME280;48695;53.480;-6.300;2024-01-10T06:12:22;102873.38;;;6.38;67.02
61537;BME280;48695;53.480;-6.300;2024-01-10T06:14:48;102876.91;;;6.40;66.91
61537;BME280;48695;53.480;-6.300;2024-01-10T06:17:13;102879.50;;;6.40;67.43
61537;BME280;48695;53.480;-6.300;2024-01-10T06:19:38;102879.53;;;6.42;67.41
61537;BME280;48695;53.480;-6.300;2024-01-10T06:22:04;102886.50;;;6.43;67.62
61537;BME280;48695;53.480;-6.300;2024-01-10T06:24:29;102878.78;;;6.44;67.16
61537;BME280;48695;53.480;-6.300;2024-01-10T06:26:55;102880.53;;;6.45;67.48
61537;BME280;48695;53.480;-6.300;2024-01-10T06:29:20;102882.28;;;6.46;67.58
61537;BME280;48695;53.480;-6.300;2024-01-10T06:31:46;102882.31;;;6.48;67.54
61537;BME280;48695;53.480;-6.300;2024-01-10T06:34:12;102877.19;;;6.49;67.22
61537;BME280;48695;53.480;-6.300;2024-01-10T06:36:37;102878.94;;;6.50;67.59
61537;BME280;48695;53.480;-6.300;2024-01-10T06:39:03;102882.44;;;6.53;67.47
61537;BME280;48695;53.480;-6.300;2024-01-10T06:41:29;102872.94;;;6.53;67.51
61537;BME280;48695;53.480;-6.300;2024-01-10T06:43:54;102873.81;;;6.54;67.66
61537;BME280;48695;53.480;-6.300;2024-01-10T06:46:20;102877.34;;;6.56;67.35
61537;BME280;48695;53.480;-6.300;2024-01-10T06:48:45;102886.06;;;6.58;67.77
61537;BME280;48695;53.480;-6.300;2024-01-10T06:51:14;102885.19;;;6.57;67.37
61537;BME280;48695;53.480;-6.300;2024-01-10T06:53:40;102888.72;;;6.59;67.33
61537;BME280;48695;53.480;-6.300;2024-01-10T06:56:05;102893.00;;;6.59;67.21
61537;BME280;48695;53.480;-6.300;2024-01-10T06:58:31;102894.78;;;6.60;67.31
61537;BME280;48695;53.480;-6.300;2024-01-10T07:00:56;102900.00;;;6.61;67.77
61537;BME280;48695;53.480;-6.300;2024-01-10T07:03:21;102900.88;;;6.62;67.44
61537;BME280;48695;53.480;-6.300;2024-01-10T07:05:46;102896.56;;;6.62;67.30
61537;BME280;48695;53.480;-6.300;2024-01-10T07:08:12;102900.94;;;6.63;67.28
61537;BME280;48695;53.480;-6.300;2024-01-10T07:10:37;102901.00;;;6.65;67.41
61537;BME280;48695;53.480;-6.300;2024-01-10T07:13:03;102900.13;;;6.64;67.69
61537;BME280;48695;53.480;-6.300;2024-01-10T07:15:29;102901.03;;;6.66;67.67
61537;BME280;48695;53.480;-6.300;2024-01-10T07:17:54;102902.78;;;6.67;67.56
61537;BME280;48695;53.480;-6.300;2024-01-10T07:20:20;102902.81;;;6.69;67.76
61537;BME280;48695;53.480;-6.300;2024-01-10T07:22:45;102902.72;;;6.64;67.54
61537;BME280;48695;53.480;-6.300;2024-01-10T07:25:10;102910.66;;;6.70;67.55
61537;BME280;48695;53.480;-6.300;2024-01-10T07:27:39;102909.78;;;6.70;67.29
61537;BME280;48695;53.480;-6.300;2024-01-10T07:30:05;102919.34;;;6.71;67.63
61537;BME280;48695;53.480;-6.300;2024-01-10T07:32:36;102917.66;;;6.73;67.72
61537;BME280;48695;53.480;-6.300;2024-01-10T07:35:02;102905.50;;;6.72;67.68
61537;BME280;48695;53.480;-6.300;2024-01-10T07:37:27;102914.22;;;6.74;67.47
61537;BME280;48695;53.480;-6.300;2024-01-10T07:39:52;102914.22;;;6.74;67.43
61537;BME280;48695;53.480;-6.300;2024-01-10T07:42:19;102915.13;;;6.74;67.43
61537;BME280;48695;53.480;-6.300;2024-01-10T07:44:44;102914.22;;;6.74;67.29
61537;BME280;48695;53.480;-6.300;2024-01-10T07:47:09;102909.03;;;6.74;67.43
61537;BME280;48695;53.480;-6.300;2024-01-10T07:49:35;102916.00;;;6.75;67.61
61537;BME280;48695;53.480;-6.300;2024-01-10T07:52:01;102909.94;;;6.74;67.57
61537;BME280;48695;53.480;-6.300;2024-01-10T07:54:26;102906.50;;;6.75;67.46
61537;BME280;48695;53.480;-6.300;2024-01-10T07:56:52;102910.81;;;6.75;67.51
61537;BME280;48695;53.480;-6.300;2024-01-10T07:59:18;102903.00;;;6.75;67.55
61537;BME280;48695;53.480;-6.300;2024-01-10T08:01:43;102902.16;;;6.76;67.30
61537;BME280;48695;53.480;-6.300;2024-01-10T08:04:10;102907.38;;;6.76;67.20
61537;BME280;48695;53.480;-6.300;2024-01-10T08:06:35;102919.50;;;6.77;67.19
61537;BME280;48695;53.480;-6.300;2024-01-10T08:09:01;102921.25;;;6.78;67.42
61537;BME280;48695;53.480;-6.300;2024-01-10T08:11:29;102917.81;;;6.79;67.49
61537;BME280;48695;53.480;-6.300;2024-01-10T08:13:54;102918.72;;;6.80;67.36
61537;BME280;48695;53.480;-6.300;2024-01-10T08:16:19;102921.34;;;6.81;67.32
61537;BME280;48695;53.480;-6.300;2024-01-10T08:18:45;102916.16;;;6.81;67.52
61537;BME280;48695;53.480;-6.300;2024-01-10T08:21:10;102912.72;;;6.82;67.31
61537;BME280;48695;53.480;-6.300;2024-01-10T08:23:35;102911.00;;;6.83;67.33
61537;BME280;48695;53.480;-6.300;2024-01-10T08:26:01;102916.22;;;6.84;67.70
61537;BME280;48695;53.480;-6.300;2024-01-10T08:28:26;102910.13;;;6.82;67.48
61537;BME280;48695;53.480;-6.300;2024-01-10T08:30:51;102912.81;;;6.85;67.64
61537;BME280;48695;53.480;-6.300;2024-01-10T08:33:16;102921.53;;;6.87;67.60
61537;BME280;48695;53.480;-6.300;2024-01-10T08:35:43;102923.28;;;6.88;67.31
61537;BME280;48695;53.480;-6.300;2024-01-10T08:38:08;102936.34;;;6.90;67.64
61537;BME280;48695;53.480;-6.300;2024-01-10T08:40:33;102931.13;;;6.90;67.63
61537;BME280;48695;53.480;-6.300;2024-01-10T08:42:58;102938.97;;;6.91;67.64
61537;BME280;48695;53.480;-6.300;2024-01-10T08:45:24;102936.41;;;6.93;67.38
61537;BME280;48695;53.480;-6.300;2024-01-10T08:47:49;102938.16;;;6.94;67.63
61537;BME280;48695;53.480;-6.300;2024-01-10T08:50:15;102941.69;;;6.96;67.48
61537;BME280;48695;53.480;-6.300;2024-01-10T08:52:40;102938.25;;;6.97;67.44
61537;BME280;48695;53.480;-6.300;2024-01-10T08:55:05;102946.06;;;6.98;67.63
61537;BME280;48695;53.480;-6.300;2024-01-10T08:57:31;102947.84;;;6.99;67.58
61537;BME280;48695;53.480;-6.300;2024-01-10T08:59:56;102940.97;;;7.01;67.79
61537;BME280;48695;53.480;-6.300;2024-01-10T09:02:22;102946.19;;;7.01;67.78
61537;BME280;48695;53.480;-6.300;2024-01-10T09:04:48;102947.97;;;7.04;67.55
61537;BME280;48695;53.480;-6.300;2024-01-10T09:07:13;102929.53;;;6.95;67.49
61537;BME280;48695;53.480;-6.300;2024-01-10T09:09:39;102946.31;;;7.06;67.68
61537;BME280;48695;53.480;-6.300;2024-01-10T09:12:04;102949.78;;;7.07;67.92
61537;BME280;48695;53.480;-6.300;2024-01-10T09:14:29;102946.38;;;7.09;67.49
61537;BME280;48695;53.480;-6.300;2024-01-10T09:16:55;102950.75;;;7.10;67.77
61537;BME280;48695;53.480;-6.300;2024-01-10T09:19:20;102944.69;;;7.10;67.94
61537;BME280;48695;53.480;-6.300;2024-01-10T09:21:45;102950.81;;;7.13;67.50
61537;BME280;48695;53.480;-6.300;2024-01-10T09:24:11;102947.38;;;7.14;67.54
61537;BME280;48695;53.480;-6.300;2024-01-10T09:26:39;102951.78;;;7.17;67.56
61537;BME280;48695;53.480;-6.300;2024-01-10T09:29:05;102946.59;;;7.17;67.48
61537;BME280;48695;53.480;-6.300;2024-01-10T09:31:31;102953.53;;;7.18;67.83
61537;BME280;48695;53.480;-6.300;2024-01-10T09:33:56;102948.44;;;7.21;67.89
61537;BME280;48695;53.480;-6.300;2024-01-10T09:36:22;102956.28;;;7.22;67.55
61537;BME280;48695;53.480;-6.300;2024-01-10T09:38:47;102955.44;;;7.23;67.57
61537;BME280;48695;53.480;-6.300;2024-01-10T09:41:12;102953.78;;;7.25;67.77
61537;BME280;48695;53.480;-6.300;2024-01-10T09:43:38;102948.59;;;7.27;67.87
61537;BME280;48695;53.480;-6.300;2024-01-10T09:46:03;102951.22;;;7.28;67.76
61537;BME280;48695;53.480;-6.300;2024-01-10T09:48:30;102947.78;;;7.29;67.57
61537;BME280;48695;53.480;-6.300;2024-01-10T09:50:56;102950.47;;;7.31;67.50
61537;BME280;48695;53.480;-6.300;2024-01-10T09:53:22;102951.38;;;7.33;67.59
61537;BME280;48695;53.480;-6.300;2024-01-10T09:55:49;102956.56;;;7.33;67.77
61537;BME280;48695;53.480;-6.300;2024-01-10T09:58:14;102957.50;;;7.35;67.84
61537;BME280;48695;53.480;-6.300;2024-01-10T10:00:39;102955.81;;;7.37;67.58
61537;BME280;48695;53.480;-6.300;2024-01-10T10:03:07;102958.44;;;7.39;67.49
61537;BME280;48695;53.480;-6.300;2024-01-10T10:05:34;102948.13;;;7.42;67.48
61537;BME280;48695;53.480;-6.300;2024-01-10T10:07:59;102950.75;;;7.43;67.70
61537;BME280;48695;53.480;-6.300;2024-01-10T10:10:24;102958.59;;;7.45;67.84
61537;BME280;48695;53.480;-6.300;2024-01-10T10:12:51;102958.69;;;7.48;67.63
61537;BME280;48695;53.480;-6.300;2024-01-10T10:15:22;102968.34;;;7.52;67.85
61537;BME280;48695;53.480;-6.300;2024-01-10T10:17:48;102958.84;;;7.54;68.01
61537;BME280;48695;53.480;-6.300;2024-01-10T10:20:21;102965.00;;;7.58;67.64
61537;BME280;48695;53.480;-6.300;2024-01-10T10:25:26;102960.78;;;7.61;67.49
61537;BME280;48695;53.480;-6.300;2024-01-10T10:27:51;102959.09;;;7.63;67.53
61537;BME280;48695;53.480;-6.300;2024-01-10T10:30:17;102965.19;;;7.65;67.56
61537;BME280;48695;53.480;-6.300;2024-01-10T10:32:42;102973.94;;;7.67;67.67
61537;BME280;48695;53.480;-6.300;2024-01-10T10:35:08;102969.63;;;7.69;67.90
61537;BME280;48695;53.480;-6.300;2024-01-10T10:37:34;102963.66;;;7.72;67.80
61537;BME280;48695;53.480;-6.300;2024-01-10T10:39:59;102961.94;;;7.74;67.73
61537;BME280;48695;53.480;-6.300;2024-01-10T10:42:24;102961.94;;;7.74;67.84
61537;BME280;48695;53.480;-6.300;2024-01-10T10:44:53;102958.56;;;7.76;67.31
61537;BME280;48695;53.480;-6.300;2024-01-10T10:47:22;102956.88;;;7.78;67.66
61537;BME280;48695;53.480;-6.300;2024-01-10T10:49:51;102959.50;;;7.80;67.50
61537;BME280;48695;53.480;-6.300;2024-01-10T10:52:20;102963.03;;;7.82;67.67
61537;BME280;48695;53.480;-6.300;2024-01-10T10:54:46;102970.91;;;7.85;67.88
61537;BME280;48695;53.480;-6.300;2024-01-10T10:57:13;102960.59;;;7.88;67.66
61537;BME280;48695;53.480;-6.300;2024-01-10T10:59:39;102966.69;;;7.90;67.60
61537;BME280;48695;53.480;-6.300;2024-01-10T11:02:06;102957.22;;;7.92;67.66
61537;BME280;48695;53.480;-6.300;2024-01-10T11:04:34;102957.28;;;7.95;67.66
61537;BME280;48695;53.480;-6.300;2024-01-10T11:07:00;102959.97;;;7.98;67.74
61537;BME280;48695;53.480;-6.300;2024-01-10T11:09:25;102956.50;;;7.99;67.62
61537;BME280;48695;53.480;-6.300;2024-01-10T11:12:00;102953.13;;;8.02;67.56
61537;BME280;48695;53.480;-6.300;2024-01-10T11:24:32;102954.63;;;8.30;67.78
61537;BME280;48695;53.480;-6.300;2024-01-10T11:27:07;102956.50;;;8.36;68.29
61537;BME280;48695;53.480;-6.300;2024-01-10T11:29:36;102952.41;;;8.45;68.35
61537;BME280;48695;53.480;-6.300;2024-01-10T11:32:01;102940.53;;;8.58;68.39
61537;BME280;48695;53.480;-6.300;2024-01-10T11:34:26;102949.03;;;8.90;68.81
61537;BME280;48695;53.480;-6.300;2024-01-10T11:37:10;102951.31;;;9.19;68.73
61537;BME280;48695;53.480;-6.300;2024-01-10T11:39:36;102950.94;;;9.44;68.46
61537;BME280;48695;53.480;-6.300;2024-01-10T11:42:02;102944.25;;;9.58;67.77
61537;BME280;48695;53.480;-6.300;2024-01-10T11:44:28;102948.72;;;9.67;67.37
61537;BME280;48695;53.480;-6.300;2024-01-10T11:46:54;102947.03;;;9.71;67.78
61537;BME280;48695;53.480;-6.300;2024-01-10T11:49:20;102947.97;;;9.74;67.80
61537;BME280;48695;53.480;-6.300;2024-01-10T11:51:46;102948.88;;;9.76;67.28
61537;BME280;48695;53.480;-6.300;2024-01-10T11:54:11;102954.09;;;9.78;67.51
61537;BME280;48695;53.480;-6.300;2024-01-10T11:56:46;102944.53;;;9.77;66.99
61537;BME280;48695;53.480;-6.300;2024-01-10T11:59:11;102941.91;;;9.75;67.13
61537;BME280;48695;53.480;-6.300;2024-01-10T12:01:38;102928.78;;;9.72;66.94
61537;BME280;48695;53.480;-6.300;2024-01-10T12:04:03;102933.97;;;9.69;67.20
61537;BME280;48695;53.480;-6.300;2024-01-10T12:06:29;102933.03;;;9.66;67.08
61537;BME280;48695;53.480;-6.300;2024-01-10T12:08:55;102929.47;;;9.60;66.90
61537;BME280;48695;53.480;-6.300;2024-01-10T12:11:20;102925.06;;;9.56;66.84
61537;BME280;48695;53.480;-6.300;2024-01-10T12:13:46;102929.31;;;9.51;66.97
61537;BME280;48695;53.480;-6.300;2024-01-10T12:16:14;102922.28;;;9.47;66.92
61537;BME280;48695;53.480;-6.300;2024-01-10T12:18:42;102918.75;;;9.44;67.35
61537;BME280;48695;53.480;-6.300;2024-01-10T12:21:08;102919.56;;;9.41;67.37
61537;BME280;48695;53.480;-6.300;2024-01-10T12:23:37;102917.75;;;9.37;67.04
61537;BME280;48695;53.480;-6.300;2024-01-10T12:26:04;102910.75;;;9.33;67.33
61537;BME280;48695;53.480;-6.300;2024-01-10T12:28:32;102904.63;;;9.31;67.30
61537;BME280;48695;53.480;-6.300;2024-01-10T12:30:57;102912.41;;;9.29;67.17
61537;BME280;48695;53.480;-6.300;2024-01-10T12:33:23;102913.22;;;9.27;67.52
61537;BME280;48695;53.480;-6.300;2024-01-10T12:36:04;102915.81;;;9.25;67.24
61537;BME280;48695;53.480;-6.300;2024-01-10T12:38:30;102921.03;;;9.25;67.60
61537;BME280;48695;53.480;-6.300;2024-01-10T12:40:56;102914.94;;;9.25;67.60
61537;BME280;48695;53.480;-6.300;2024-01-10T12:43:22;102914.06;;;9.24;67.69
61537;BME280;48695;53.480;-6.300;2024-01-10T12:45:47;102909.72;;;9.25;67.36
61537;BME280;48695;53.480;-6.300;2024-01-10T12:48:13;102914.94;;;9.25;67.47
61537;BME280;48695;53.480;-6.300;2024-01-10T12:50:39;102912.31;;;9.23;67.31
61537;BME280;48695;53.480;-6.300;2024-01-10T12:53:04;102918.41;;;9.24;67.30
61537;BME280;48695;53.480;-6.300;2024-01-10T12:55:29;102917.53;;;9.23;67.48